createdAt,value
2018-12-29T00:01:31.059Z,50.77
2018-12-29T00:04:02.068Z,50.73
2018-12-29T00:06:32.991Z,47.67
2018-12-29T00:09:05.381Z,43.17
2018-12-29T00:11:36.376Z,52.23
2018-12-29T00:14:07.266Z,49.63
2018-12-29T00:16:38.273Z,48.37
2018-12-29T00:19:09.497Z,48.40
2018-12-29T00:21:40.548Z,53.60
2018-12-29T00:24:11.515Z,52.27
2018-12-29T00:26:46.425Z,51.73
2018-12-29T00:29:18.972Z,51.37
2018-12-29T00:31:49.983Z,49.00
2018-12-29T00:34:20.991Z,47.67
2018-12-29T00:36:51.928Z,52.50
2018-12-29T00:39:22.951Z,52.07
2018-12-29T00:41:54.076Z,49.00
2018-12-29T00:44:25.083Z,48.90
2018-12-29T00:46:56.041Z,50.57
2018-12-29T00:49:27.030Z,50.37
2018-12-29T00:51:58.197Z,49.37
2018-12-29T00:54:31.761Z,50.03
2018-12-29T00:57:02.801Z,51.70
2018-12-29T00:59:33.870Z,49.00
2018-12-29T01:02:04.832Z,48.13
2018-12-29T01:04:35.878Z,46.80
2018-12-29T01:07:06.959Z,50.73
2018-12-29T01:09:37.869Z,47.37
2018-12-29T01:12:08.858Z,53.20
2018-12-29T01:14:39.783Z,47.77
2018-12-29T01:17:10.761Z,47.77
2018-12-29T01:19:41.784Z,49.00
2018-12-29T01:22:12.814Z,49.30
2018-12-29T01:24:43.861Z,48.60
2018-12-29T01:27:14.920Z,46.37
2018-12-29T01:29:45.842Z,43.60
2018-12-29T01:32:16.788Z,45.43
2018-12-29T01:34:47.672Z,43.07
2018-12-29T01:37:18.643Z,48.47
2018-12-29T01:39:49.590Z,45.67
2018-12-29T01:42:20.615Z,52.93
2018-12-29T01:44:51.643Z,42.70
2018-12-29T01:47:22.585Z,38.73
2018-12-29T01:49:53.630Z,42.83
2018-12-29T01:52:27.593Z,45.60
2018-12-29T01:55:03.149Z,40.80
2018-12-29T01:57:34.165Z,45.30
2018-12-29T02:00:05.990Z,41.63
2018-12-29T02:02:36.989Z,48.93
2018-12-29T02:05:10.847Z,42.40
2018-12-29T02:07:41.850Z,42.27
2018-12-29T02:10:12.893Z,45.90
2018-12-29T02:12:43.814Z,44.77
2018-12-29T02:15:14.772Z,45.67
2018-12-29T02:17:45.745Z,44.60
2018-12-29T02:20:16.770Z,46.13
2018-12-29T02:22:47.701Z,45.33
2018-12-29T02:25:18.759Z,50.80
2018-12-29T02:27:49.697Z,49.70
2018-12-29T02:30:20.753Z,47.63
2018-12-29T02:32:51.683Z,47.23
2018-12-29T02:35:22.737Z,44.97
2018-12-29T02:37:53.641Z,51.57
2018-12-29T02:40:24.705Z,47.20
2018-12-29T02:42:55.740Z,45.73
2018-12-29T02:45:33.049Z,49.50
2018-12-29T02:47:59.461Z,47.97
2018-12-29T02:50:30.450Z,50.43
2018-12-29T02:53:01.353Z,51.27
2018-12-29T02:55:35.040Z,48.80
2018-12-29T02:58:06.120Z,53.07
2018-12-29T03:00:37.029Z,49.10
2018-12-29T03:03:08.058Z,51.30
2018-12-29T03:05:39.051Z,45.93
2018-12-29T03:08:09.939Z,54.43
2018-12-29T03:10:41.261Z,46.57
2018-12-29T03:13:12.732Z,50.20
2018-12-29T03:15:43.804Z,45.17
2018-12-29T03:18:14.772Z,51.63
2018-12-29T03:20:45.768Z,47.93
2018-12-29T03:23:16.877Z,48.03
2018-12-29T03:25:47.967Z,47.90
2018-12-29T03:28:18.937Z,47.27
2018-12-29T03:30:49.837Z,40.67
2018-12-29T03:33:20.846Z,43.30
2018-12-29T03:35:51.807Z,48.43
2018-12-29T03:38:22.729Z,50.07
2018-12-29T03:40:53.683Z,45.40
2018-12-29T03:43:24.718Z,47.77
2018-12-29T03:45:55.710Z,49.93
2018-12-29T03:48:26.804Z,44.53
2018-12-29T03:50:57.754Z,47.50
2018-12-29T03:53:28.796Z,47.67
2018-12-29T03:55:59.848Z,49.03
2018-12-29T03:58:31.023Z,47.63
2018-12-29T04:01:02.071Z,54.27
2018-12-29T04:03:32.969Z,53.47
2018-12-29T04:06:03.939Z,48.17
2018-12-29T04:08:34.908Z,47.30
2018-12-29T04:11:05.821Z,46.50
2018-12-29T04:13:36.726Z,50.80
2018-12-29T04:16:07.807Z,54.53
2018-12-29T04:18:38.734Z,57.40
2018-12-29T04:21:09.607Z,54.90
2018-12-29T04:23:40.511Z,49.33
2018-12-29T04:26:11.499Z,53.27
2018-12-29T04:28:42.809Z,54.57
2018-12-29T04:31:13.750Z,51.97
2018-12-29T04:33:44.730Z,55.13
2018-12-29T04:36:15.642Z,51.00
2018-12-29T04:38:46.626Z,55.53
2018-12-29T04:41:17.512Z,55.03
2018-12-29T04:43:48.403Z,55.33
2018-12-29T04:46:19.520Z,57.00
2018-12-29T04:48:50.486Z,56.47
2018-12-29T04:51:21.418Z,53.17
2018-12-29T04:53:52.465Z,58.93
2018-12-29T04:56:25.074Z,63.90
2018-12-29T04:58:56.068Z,57.43
2018-12-29T05:01:27.082Z,58.83
2018-12-29T05:03:58.054Z,58.30
2018-12-29T05:06:29.058Z,64.70
2018-12-29T05:09:00.032Z,56.77
2018-12-29T05:11:30.991Z,70.73
2018-12-29T05:14:02.146Z,59.60
2018-12-29T05:16:33.012Z,71.10
2018-12-29T05:19:04.065Z,64.03
2018-12-29T05:21:35.027Z,68.67
2018-12-29T05:24:06.343Z,65.40
2018-12-29T05:26:37.214Z,76.70
2018-12-29T05:29:08.198Z,75.47
2018-12-29T05:31:39.183Z,75.57
2018-12-29T05:34:10.116Z,78.30
2018-12-29T05:36:41.116Z,75.73
2018-12-29T05:39:12.086Z,76.90
2018-12-29T05:41:43.134Z,82.03
2018-12-29T05:44:13.194Z,76.07
2018-12-29T05:46:44.594Z,75.43
2018-12-29T05:49:15.601Z,79.87
2018-12-29T05:51:46.581Z,75.43
2018-12-29T05:54:17.486Z,68.50
2018-12-29T05:56:48.468Z,72.97
2018-12-29T05:59:19.488Z,86.37
2018-12-29T06:01:50.486Z,80.83
2018-12-29T06:04:21.430Z,76.73
2018-12-29T06:06:52.476Z,81.70
2018-12-29T06:09:23.449Z,72.63
2018-12-29T06:11:54.480Z,74.27
2018-12-29T06:14:25.464Z,78.90
2018-12-29T06:16:56.674Z,77.20
2018-12-29T06:19:27.671Z,72.30
2018-12-29T06:21:58.627Z,80.17
2018-12-29T06:24:29.523Z,83.93
2018-12-29T06:27:00.529Z,81.47
2018-12-29T06:29:31.499Z,84.23
2018-12-29T06:32:02.560Z,88.63
2018-12-29T06:34:33.458Z,94.80
2018-12-29T06:37:04.360Z,98.97
2018-12-29T06:39:35.251Z,85.50
2018-12-29T06:42:06.165Z,91.37
2018-12-29T06:44:37.084Z,92.53
2018-12-29T06:47:08.102Z,83.23
2018-12-29T06:49:39.079Z,78.43
2018-12-29T06:52:10.064Z,77.90
2018-12-29T06:54:41.012Z,80.43
2018-12-29T06:57:11.931Z,71.50
2018-12-29T06:59:42.975Z,80.13
2018-12-29T07:02:14.007Z,84.07
2018-12-29T07:04:45.080Z,87.57
2018-12-29T07:07:15.984Z,86.10
2018-12-29T07:09:47.013Z,86.43
2018-12-29T07:12:18.163Z,89.90
2018-12-29T07:14:49.262Z,89.70
2018-12-29T07:17:20.187Z,88.30
2018-12-29T07:19:51.190Z,85.90
2018-12-29T07:22:22.094Z,86.57
2018-12-29T07:24:53.155Z,82.60
2018-12-29T07:27:24.197Z,94.80
2018-12-29T07:29:55.198Z,83.90
2018-12-29T07:32:26.110Z,87.43
2018-12-29T07:34:56.989Z,83.47
2018-12-29T07:37:27.895Z,80.70
2018-12-29T07:39:58.916Z,80.57
2018-12-29T07:42:29.898Z,77.77
2018-12-29T07:45:00.797Z,73.37
2018-12-29T07:47:31.733Z,72.73
2018-12-29T07:50:02.671Z,72.10
2018-12-29T07:52:33.649Z,73.53
2018-12-29T07:55:04.895Z,66.97
2018-12-29T07:57:35.897Z,69.50
2018-12-29T08:00:07.593Z,67.70
2018-12-29T08:02:38.592Z,73.53
2018-12-29T08:05:09.670Z,68.90
2018-12-29T08:07:40.634Z,62.03
2018-12-29T08:10:11.615Z,66.60
2018-12-29T08:12:42.591Z,66.40
2018-12-29T08:15:13.634Z,66.17
2018-12-29T08:17:44.737Z,59.67
2018-12-29T08:20:15.684Z,66.17
2018-12-29T08:22:46.662Z,61.43
2018-12-29T08:25:17.594Z,60.37
2018-12-29T08:27:48.497Z,72.73
2018-12-29T08:30:19.475Z,77.60
2018-12-29T08:32:50.444Z,62.00
2018-12-29T08:35:21.422Z,60.87
2018-12-29T08:37:52.298Z,67.50
2018-12-29T08:40:23.339Z,56.53
2018-12-29T08:42:54.397Z,56.27
2018-12-29T08:45:25.385Z,53.40
2018-12-29T08:47:56.273Z,51.23
2018-12-29T08:50:27.200Z,59.73
2018-12-29T08:52:58.252Z,54.53
2018-12-29T08:55:30.033Z,51.60
2018-12-29T08:58:01.151Z,54.90
2018-12-29T09:00:32.074Z,64.40
2018-12-29T09:03:03.196Z,53.70
2018-12-29T09:05:34.169Z,53.83
2018-12-29T09:08:05.141Z,53.70
2018-12-29T09:10:36.291Z,57.50
2018-12-29T09:13:07.524Z,58.83
2018-12-29T09:15:39.343Z,62.23
2018-12-29T09:18:10.358Z,59.83
2018-12-29T09:20:41.346Z,54.70
2018-12-29T09:23:12.412Z,60.67
2018-12-29T09:25:43.406Z,56.87
2018-12-29T09:28:14.531Z,62.30
2018-12-29T09:30:45.632Z,57.77
2018-12-29T09:33:16.778Z,60.83
2018-12-29T09:35:47.838Z,54.87
2018-12-29T09:38:18.769Z,61.03
2018-12-29T09:40:49.776Z,62.50
2018-12-29T09:43:20.799Z,61.63
2018-12-29T09:45:51.782Z,65.63
2018-12-29T09:48:22.701Z,57.53
2018-12-29T09:50:53.635Z,58.90
2018-12-29T09:53:24.538Z,64.37
2018-12-29T09:55:56.011Z,62.40
2018-12-29T09:58:27.218Z,56.03
2018-12-29T10:00:58.180Z,54.23
2018-12-29T10:03:29.145Z,61.00
2018-12-29T10:06:00.076Z,56.63
2018-12-29T10:08:31.025Z,58.77
2018-12-29T10:11:02.020Z,59.47
2018-12-29T10:13:32.993Z,56.40
2018-12-29T10:16:03.957Z,53.40
2018-12-29T10:18:35.059Z,54.10
2018-12-29T10:21:06.151Z,57.53
2018-12-29T10:23:37.130Z,54.63
2018-12-29T10:26:08.036Z,52.30
2018-12-29T10:28:39.021Z,55.07
2018-12-29T10:31:09.932Z,53.33
2018-12-29T10:33:40.831Z,47.83
2018-12-29T10:36:11.789Z,50.93
2018-12-29T10:38:42.705Z,54.80
2018-12-29T10:41:13.694Z,49.17
2018-12-29T10:43:44.583Z,49.93
2018-12-29T10:46:15.578Z,56.43
2018-12-29T10:48:46.511Z,58.27
2018-12-29T10:51:17.467Z,52.40
2018-12-29T10:53:48.399Z,57.80
2018-12-29T10:56:19.359Z,54.43
2018-12-29T10:58:50.409Z,54.83
2018-12-29T11:01:21.429Z,53.03
2018-12-29T11:03:52.468Z,47.93
2018-12-29T11:06:23.424Z,58.27
2018-12-29T11:08:55.088Z,50.27
2018-12-29T11:11:26.037Z,48.80
2018-12-29T11:13:56.994Z,45.43
2018-12-29T11:16:27.965Z,46.40
2018-12-29T11:19:00.305Z,41.23
2018-12-29T11:21:31.210Z,44.47
2018-12-29T11:24:02.106Z,38.63
2018-12-29T11:26:33.021Z,38.47
2018-12-29T11:29:04.014Z,39.53
2018-12-29T11:31:34.974Z,40.73
2018-12-29T11:34:05.912Z,35.90
2018-12-29T11:36:36.807Z,38.50
2018-12-29T11:39:07.917Z,36.07
2018-12-29T11:41:38.915Z,33.40
2018-12-29T11:44:11.592Z,35.80
2018-12-29T11:46:42.481Z,35.17
2018-12-29T11:49:17.957Z,34.70
2018-12-29T11:51:47.321Z,33.50
2018-12-29T11:54:18.241Z,35.83
2018-12-29T11:56:49.173Z,31.83
2018-12-29T11:59:20.174Z,34.03
2018-12-29T12:01:53.880Z,31.97
2018-12-29T12:04:24.931Z,30.20
2018-12-29T12:06:55.852Z,30.00
2018-12-29T12:09:27.079Z,32.93
2018-12-29T12:11:58.019Z,30.97
2018-12-29T12:14:29.042Z,32.17
2018-12-29T12:17:03.190Z,36.03
2018-12-29T12:19:34.259Z,33.30
2018-12-29T12:22:05.237Z,30.33
2018-12-29T12:24:36.136Z,32.53
2018-12-29T12:27:08.668Z,34.63
2018-12-29T12:29:40.029Z,31.10
2018-12-29T12:32:10.924Z,33.10
2018-12-29T12:34:43.575Z,31.33
2018-12-29T12:37:14.570Z,35.17
2018-12-29T12:39:45.990Z,33.07
2018-12-29T12:42:17.057Z,33.60
2018-12-29T12:44:47.907Z,37.83
2018-12-29T12:47:18.892Z,38.10
2018-12-29T12:49:49.783Z,33.17
2018-12-29T12:52:20.658Z,35.33
2018-12-29T12:54:51.728Z,35.53
2018-12-29T12:57:23.210Z,32.83
2018-12-29T12:59:54.364Z,37.93
2018-12-29T13:02:25.620Z,31.97
2018-12-29T13:04:56.665Z,29.30
2018-12-29T13:07:27.597Z,34.33
2018-12-29T13:09:58.594Z,36.60
2018-12-29T13:12:29.880Z,34.80
2018-12-29T13:15:00.842Z,33.80
2018-12-29T13:17:31.804Z,33.87
2018-12-29T13:20:02.887Z,36.70
2018-12-29T13:22:33.841Z,33.77
2018-12-29T13:25:05.166Z,32.50
2018-12-29T13:27:36.279Z,32.97
2018-12-29T13:30:08.095Z,32.77
2018-12-29T13:32:39.109Z,32.70
2018-12-29T13:35:10.275Z,34.93
2018-12-29T13:37:41.344Z,35.77
2018-12-29T13:40:12.316Z,36.27
2018-12-29T13:42:43.354Z,35.67
2018-12-29T13:45:14.478Z,32.50
2018-12-29T13:47:45.486Z,34.03
2018-12-29T13:50:16.572Z,36.07
2018-12-29T13:52:47.655Z,32.77
2018-12-29T13:55:18.698Z,34.10
2018-12-29T13:57:49.621Z,37.60
2018-12-29T14:00:20.584Z,34.57
2018-12-29T14:02:53.297Z,37.27
2018-12-29T14:05:24.239Z,39.33
2018-12-29T14:07:55.256Z,38.37
2018-12-29T14:10:26.190Z,37.33
2018-12-29T14:12:57.174Z,35.70
2018-12-29T14:15:28.242Z,36.77
2018-12-29T14:17:59.408Z,32.93
2018-12-29T14:20:30.470Z,34.73
2018-12-29T14:23:01.463Z,35.00
2018-12-29T14:25:32.378Z,36.07
2018-12-29T14:28:03.744Z,42.57
2018-12-29T14:30:34.713Z,41.03
2018-12-29T14:33:05.666Z,41.80
2018-12-29T14:35:36.649Z,40.97
2018-12-29T14:38:07.594Z,50.67
2018-12-29T14:40:38.642Z,53.37
2018-12-29T14:43:09.726Z,52.63
2018-12-29T14:45:40.770Z,103.37
2018-12-29T14:48:12.014Z,43.97
2018-12-29T14:50:43.145Z,36.77
2018-12-29T14:53:14.132Z,45.90
2018-12-29T14:55:45.238Z,38.90
2018-12-29T14:58:16.576Z,40.30
2018-12-29T15:00:47.599Z,39.70
2018-12-29T15:03:18.589Z,39.07
2018-12-29T15:05:49.558Z,40.07
2018-12-29T15:08:20.591Z,39.77
2018-12-29T15:10:51.505Z,36.70
2018-12-29T15:13:22.723Z,38.77
2018-12-29T15:15:53.761Z,42.87
2018-12-29T15:18:24.994Z,37.80
2018-12-29T15:20:56.334Z,33.40
2018-12-29T15:23:27.604Z,33.40
2018-12-29T15:25:58.540Z,35.90
2018-12-29T15:28:29.525Z,35.47
2018-12-29T15:31:00.537Z,38.13
2018-12-29T15:33:32.377Z,32.27
2018-12-29T15:36:03.358Z,34.13
2018-12-29T15:38:34.262Z,34.57
2018-12-29T15:41:05.533Z,36.23
2018-12-29T15:43:36.398Z,37.07
2018-12-29T15:46:07.628Z,36.77
2018-12-29T15:48:38.557Z,37.93
2018-12-29T15:51:09.646Z,37.30
2018-12-29T15:53:40.621Z,38.80
2018-12-29T15:56:11.494Z,34.07
2018-12-29T15:58:42.590Z,35.97
2018-12-29T16:01:13.963Z,34.87
2018-12-29T16:03:44.927Z,36.37
2018-12-29T16:06:15.906Z,38.77
2018-12-29T16:08:47.007Z,36.13
2018-12-29T16:11:26.009Z,35.87
2018-12-29T16:13:51.163Z,38.97
2018-12-29T16:16:22.188Z,38.23
2018-12-29T16:18:58.847Z,35.80
2018-12-29T16:21:25.842Z,37.20
2018-12-29T16:23:56.776Z,40.73
2018-12-29T16:26:27.802Z,41.23
2018-12-29T16:28:58.737Z,41.60
2018-12-29T16:31:29.686Z,38.70
2018-12-29T16:34:00.570Z,45.03
2018-12-29T16:36:31.845Z,39.50
2018-12-29T16:39:02.918Z,40.07
2018-12-29T16:41:33.974Z,37.80
2018-12-29T16:44:05.332Z,39.53
2018-12-29T16:46:36.723Z,40.03
2018-12-29T16:49:07.601Z,34.57
2018-12-29T16:51:38.576Z,29.87
2018-12-29T16:54:09.615Z,32.77
2018-12-29T16:56:40.932Z,33.00
2018-12-29T16:59:11.828Z,34.10
2018-12-29T17:01:42.872Z,31.33
2018-12-29T17:04:13.791Z,34.27
2018-12-29T17:06:46.462Z,35.90
2018-12-29T17:09:17.706Z,34.37
2018-12-29T17:11:52.529Z,30.30
2018-12-29T17:14:21.368Z,39.70
2018-12-29T17:16:52.467Z,40.93
2018-12-29T17:19:23.515Z,34.97
2018-12-29T17:21:58.162Z,33.83
2018-12-29T17:24:29.191Z,36.47
2018-12-29T17:27:00.195Z,34.27
2018-12-29T17:29:31.166Z,32.20
2018-12-29T17:32:02.186Z,32.93
2018-12-29T17:34:33.129Z,34.00
2018-12-29T17:37:04.092Z,33.43
2018-12-29T17:39:35.202Z,31.00
2018-12-29T17:42:06.195Z,35.47
2018-12-29T17:44:37.294Z,30.87
2018-12-29T17:47:08.259Z,34.40
2018-12-29T17:49:39.286Z,33.20
2018-12-29T17:52:10.312Z,29.50
2018-12-29T17:54:41.288Z,31.80
2018-12-29T17:57:12.271Z,32.30
2018-12-29T17:59:43.382Z,29.97
2018-12-29T18:02:14.282Z,29.80
2018-12-29T18:04:45.292Z,28.67
2018-12-29T18:07:16.365Z,30.27
2018-12-29T18:09:47.435Z,29.60
2018-12-29T18:12:18.564Z,29.07
2018-12-29T18:14:50.107Z,28.97
2018-12-29T18:17:21.367Z,29.03
2018-12-29T18:19:52.413Z,27.93
2018-12-29T18:22:23.382Z,28.80
2018-12-29T18:24:54.825Z,27.97
2018-12-29T18:27:25.797Z,29.90
2018-12-29T18:29:56.707Z,31.03
2018-12-29T18:32:29.655Z,27.43
2018-12-29T18:35:00.720Z,31.00
2018-12-29T18:37:31.714Z,29.17
2018-12-29T18:40:03.226Z,28.87
2018-12-29T18:42:34.247Z,30.93
2018-12-29T18:45:05.974Z,29.83
2018-12-29T18:47:37.223Z,28.97
2018-12-29T18:50:08.228Z,28.03
2018-12-29T18:52:39.555Z,31.67
2018-12-29T18:55:11.364Z,28.77
2018-12-29T18:57:42.388Z,27.47
2018-12-29T19:00:13.463Z,31.10
2018-12-29T19:02:44.463Z,33.50
2018-12-29T19:05:15.461Z,28.73
2018-12-29T19:07:46.320Z,30.57
2018-12-29T19:10:17.614Z,30.93
2018-12-29T19:12:48.561Z,31.57
2018-12-29T19:15:19.829Z,31.83
2018-12-29T19:17:51.360Z,34.60
2018-12-29T19:20:22.756Z,34.20
2018-12-29T19:22:53.949Z,33.37
2018-12-29T19:25:25.025Z,33.17
2018-12-29T19:27:55.990Z,36.70
2018-12-29T19:30:27.427Z,37.87
2018-12-29T19:32:58.760Z,36.70
2018-12-29T19:35:29.871Z,36.07
2018-12-29T19:38:01.025Z,35.80
2018-12-29T19:40:35.400Z,31.23
2018-12-29T19:43:06.959Z,35.10
2018-12-29T19:45:37.880Z,33.10
2018-12-29T19:48:08.868Z,33.90
2018-12-29T19:50:39.867Z,37.30
2018-12-29T19:53:11.334Z,38.27
2018-12-29T19:55:42.604Z,40.43
2018-12-29T19:58:13.604Z,31.33
2018-12-29T20:00:44.644Z,37.83
2018-12-29T20:03:16.203Z,34.37
2018-12-29T20:05:47.842Z,30.13
2018-12-29T20:08:18.818Z,30.73
2018-12-29T20:10:49.883Z,30.10
2018-12-29T20:13:21.148Z,28.10
2018-12-29T20:15:52.161Z,29.30
2018-12-29T20:18:23.413Z,31.77
2018-12-29T20:20:54.372Z,29.17
2018-12-29T20:23:25.387Z,28.00
2018-12-29T20:25:56.440Z,28.30
2018-12-29T20:28:27.344Z,30.90
2018-12-29T20:30:58.250Z,29.70
2018-12-29T20:33:29.517Z,28.63
2018-12-29T20:36:00.419Z,31.37
2018-12-29T20:38:31.394Z,27.77
2018-12-29T20:41:02.298Z,31.80
2018-12-29T20:43:33.229Z,26.50
2018-12-29T20:46:04.217Z,25.07
2018-12-29T20:48:35.313Z,27.60
2018-12-29T20:51:06.268Z,25.23
2018-12-29T20:53:37.278Z,24.33
2018-12-29T20:56:08.543Z,26.77
2018-12-29T20:58:39.504Z,23.60
2018-12-29T21:01:10.490Z,25.33
2018-12-29T21:03:41.622Z,31.50
2018-12-29T21:06:12.628Z,26.07
2018-12-29T21:08:43.618Z,28.43
2018-12-29T21:11:14.514Z,27.60
2018-12-29T21:13:45.474Z,28.43
2018-12-29T21:16:16.397Z,27.97
2018-12-29T21:18:47.378Z,34.27
2018-12-29T21:21:18.386Z,37.87
2018-12-29T21:23:49.951Z,32.93
2018-12-29T21:26:21.025Z,30.97
2018-12-29T21:28:51.907Z,28.23
2018-12-29T21:31:23.169Z,29.97
2018-12-29T21:33:54.081Z,26.20
2018-12-29T21:36:27.039Z,22.77
2018-12-29T21:38:57.963Z,24.47
2018-12-29T21:41:29.237Z,25.63
2018-12-29T21:44:00.252Z,20.37
2018-12-29T21:46:31.187Z,22.77
2018-12-29T21:49:02.088Z,23.30
2018-12-29T21:51:33.044Z,18.00
2018-12-29T21:54:04.430Z,20.30
2018-12-29T21:56:35.349Z,18.23
2018-12-29T21:59:06.389Z,19.43
2018-12-29T22:01:37.358Z,19.93
2018-12-29T22:04:08.473Z,18.57
2018-12-29T22:06:39.520Z,18.30
2018-12-29T22:09:10.606Z,17.17
2018-12-29T22:11:41.620Z,15.93
2018-12-29T22:14:12.590Z,20.67
2018-12-29T22:16:43.503Z,17.57
2018-12-29T22:19:14.477Z,14.47
2018-12-29T22:21:45.450Z,15.20
2018-12-29T22:24:16.423Z,17.13
2018-12-29T22:26:47.392Z,17.67
2018-12-29T22:29:18.673Z,14.73
2018-12-29T22:31:49.568Z,13.33
2018-12-29T22:34:20.470Z,12.80
2018-12-29T22:36:51.463Z,11.20
2018-12-29T22:39:22.466Z,10.77
2018-12-29T22:41:53.353Z,9.10
2018-12-29T22:44:24.373Z,9.10
2018-12-29T22:46:55.373Z,9.20
2018-12-29T22:49:26.332Z,9.73
2018-12-29T22:51:57.766Z,9.60
2018-12-29T22:54:28.785Z,9.90
2018-12-29T22:56:59.820Z,9.77
2018-12-29T22:59:30.704Z,8.93
2018-12-29T23:02:01.933Z,10.37
2018-12-29T23:04:33.153Z,8.40
2018-12-29T23:07:04.308Z,10.00
2018-12-29T23:09:35.278Z,12.27
2018-12-29T23:12:06.507Z,12.17
2018-12-29T23:14:37.470Z,12.00
2018-12-29T23:17:08.782Z,12.47
2018-12-29T23:19:39.731Z,13.73
2018-12-29T23:22:10.670Z,12.50
2018-12-29T23:24:41.890Z,14.03
2018-12-29T23:27:12.939Z,12.17
2018-12-29T23:29:43.960Z,11.10
2018-12-29T23:32:14.938Z,12.27
2018-12-29T23:34:45.840Z,13.67
2018-12-29T23:37:16.974Z,12.73
2018-12-29T23:39:48.092Z,13.50
2018-12-29T23:42:19.330Z,14.03
2018-12-29T23:44:50.360Z,14.97
2018-12-29T23:47:21.584Z,15.70
2018-12-29T23:49:52.826Z,16.37
2018-12-29T23:52:23.939Z,18.00
2018-12-29T23:54:54.955Z,17.20
2018-12-29T23:57:25.990Z,18.83
2018-12-29T23:59:58.563Z,18.50
